Time;durP1;ratioP1;P1;durP2;ratioP2;P2;SDS_P1;SDS_P2;PMS_P1;PMS_P2;Temp;Humidity;BMP_temperature;BMP_pressure;BME280_temperature;BME280_humidity;BME280_pressure;Samples;Min_cycle;Max_cycle;Signal;HPM_P1;HPM_P2
2022/10/20 00:01:50;;;;;;;24.63;12.05;;;16.30;99.90;;;;;;4952204;28;20039;-70
2022/10/20 00:04:15;;;;;;;19.75;11.70;;;16.30;99.90;;;;;;4961621;28;20114;-70
2022/10/20 00:06:41;;;;;;;17.15;10.65;;;16.30;99.90;;;;;;4960286;28;20450;-70
2022/10/20 00:09:07;;;;;;;17.13;9.25;;;16.20;99.90;;;;;;4960049;28;20039;-71
2022/10/20 00:11:32;;;;;;;19.63;10.85;;;16.20;99.90;;;;;;4960464;28;20031;-70
2022/10/20 00:14:00;;;;;;;23.67;11.93;;;16.20;99.90;;;;;;4960353;28;20101;-70
2022/10/20 00:16:28;;;;;;;18.40;11.88;;;16.20;99.90;;;;;;4953442;28;20035;-70
2022/10/20 00:18:55;;;;;;;19.75;10.48;;;16.20;99.90;;;;;;4966320;28;20408;-70
2022/10/20 00:21:23;;;;;;;20.08;10.90;;;16.20;99.90;;;;;;4959594;28;20038;-71
2022/10/20 00:23:49;;;;;;;21.98;11.68;;;16.20;99.90;;;;;;4960329;28;20521;-70
2022/10/20 00:26:16;;;;;;;18.23;9.93;;;16.20;99.90;;;;;;4964087;28;20540;-70
2022/10/20 00:28:43;;;;;;;22.48;11.20;;;16.20;99.90;;;;;;4959297;28;20047;-71
2022/10/20 00:31:09;;;;;;;21.52;12.05;;;16.20;99.90;;;;;;4958346;28;20034;-71
2022/10/20 00:33:35;;;;;;;19.10;11.30;;;16.10;99.90;;;;;;4956981;28;20113;-71
2022/10/20 00:36:03;;;;;;;26.83;12.82;;;16.10;99.90;;;;;;4960220;28;20701;-71
2022/10/20 00:38:28;;;;;;;23.77;12.20;;;16.10;99.90;;;;;;4960900;28;20031;-70
2022/10/20 00:40:54;;;;;;;20.45;11.27;;;16.10;99.90;;;;;;4961232;28;20035;-70
2022/10/20 00:43:20;;;;;;;19.38;11.00;;;16.10;99.90;;;;;;4938913;28;20577;-70
2022/10/20 00:45:53;;;;;;;17.50;10.93;;;16.10;99.90;;;;;;4957551;28;20525;-70
2022/10/20 00:48:24;;;;;;;19.10;11.52;;;16.10;99.90;;;;;;4958603;28;20035;-70
2022/10/20 00:50:53;;;;;;;19.95;11.70;;;16.10;99.90;;;;;;4961444;28;20457;-70
2022/10/20 00:53:23;;;;;;;20.25;12.27;;;16.10;99.90;;;;;;4957719;28;20034;-70
2022/10/20 00:55:50;;;;;;;23.02;11.57;;;16.10;99.90;;;;;;4957498;28;20035;-70
2022/10/20 00:58:17;;;;;;;21.13;12.98;;;16.00;99.90;;;;;;4962842;28;20432;-70
2022/10/20 01:00:47;;;;;;;25.38;12.88;;;16.10;99.90;;;;;;4962644;28;20047;-72
2022/10/20 01:03:20;;;;;;;19.52;11.73;;;16.10;99.90;;;;;;4959975;28;20039;-70
2022/10/20 01:05:46;;;;;;;21.45;10.98;;;16.10;99.90;;;;;;4948877;28;20035;-70
2022/10/20 01:08:12;;;;;;;19.48;10.75;;;16.10;99.90;;;;;;4962839;28;20043;-70
2022/10/20 01:10:43;;;;;;;18.42;11.27;;;16.10;99.90;;;;;;4954823;28;20397;-71
2022/10/20 01:13:19;;;;;;;26.80;12.95;;;16.10;99.90;;;;;;4954435;28;20031;-71
2022/10/20 01:15:55;;;;;;;25.45;12.85;;;16.10;99.90;;;;;;4948870;28;20474;-70
2022/10/20 01:18:39;;;;;;;20.88;11.65;;;16.10;99.90;;;;;;4956100;28;20829;-70
2022/10/20 01:21:43;;;;;;;23.20;11.98;;;16.10;99.90;;;;;;4954964;28;20039;-70
2022/10/20 01:24:20;;;;;;;26.20;12.63;;;16.10;99.90;;;;;;4964611;28;20864;-70
2022/10/20 01:27:23;;;;;;;23.05;13.07;;;16.10;99.90;;;;;;4965897;28;20035;-71
2022/10/20 01:30:00;;;;;;;18.25;11.60;;;16.10;99.90;;;;;;4954677;28;20034;-70
2022/10/20 01:32:52;;;;;;;20.42;11.52;;;16.10;99.90;;;;;;4956548;28;20037;-70
2022/10/20 01:35:35;;;;;;;24.42;13.30;;;16.10;99.90;;;;;;4961029;28;20081;-70
2022/10/20 01:38:27;;;;;;;24.45;12.45;;;16.00;99.90;;;;;;4962824;28;20600;-70
2022/10/20 01:40:55;;;;;;;22.48;12.57;;;16.00;99.90;;;;;;4960346;28;20053;-71
2022/10/20 01:43:25;;;;;;;22.88;13.23;;;16.00;99.90;;;;;;4965166;28;20042;-71
2022/10/20 01:45:52;;;;;;;23.30;13.93;;;16.00;99.90;;;;;;4962740;28;20090;-70
2022/10/20 01:48:22;;;;;;;23.80;13.55;;;16.00;99.90;;;;;;4964054;28;20047;-70
2022/10/20 01:50:49;;;;;;;28.30;13.73;;;15.90;99.90;;;;;;4963806;28;20038;-70
2022/10/20 01:53:16;;;;;;;22.20;12.70;;;15.90;99.90;;;;;;4962176;28;20081;-70
2022/10/20 01:55:41;;;;;;;23.60;13.77;;;15.90;99.90;;;;;;4962543;28;20039;-70
2022/10/20 01:58:45;;;;;;;23.98;14.20;;;15.90;99.90;;;;;;4963040;28;20409;-70
2022/10/20 02:01:46;;;;;;;26.40;14.20;;;15.80;99.90;;;;;;4951607;28;20386;-70
2022/10/20 02:04:14;;;;;;;24.23;14.10;;;15.80;99.90;;;;;;4944520;28;20079;-70
2022/10/20 02:07:01;;;;;;;22.55;14.43;;;15.80;99.90;;;;;;4962958;28;20058;-70
2022/10/20 02:09:44;;;;;;;24.00;13.90;;;15.80;99.90;;;;;;4961803;28;20039;-70
2022/10/20 02:12:16;;;;;;;23.42;12.55;;;15.70;99.90;;;;;;4965029;28;20042;-70
2022/10/20 02:14:42;;;;;;;30.45;14.45;;;15.70;99.90;;;;;;4964003;28;20123;-70
2022/10/20 02:17:14;;;;;;;27.38;15.25;;;15.70;99.90;;;;;;4964387;28;20030;-70
2022/10/20 02:19:42;;;;;;;27.15;14.70;;;15.70;99.90;;;;;;4966529;28;20037;-71
2022/10/20 02:22:12;;;;;;;23.67;13.67;;;15.70;99.90;;;;;;4954942;28;20051;-70
2022/10/20 02:24:39;;;;;;;25.98;13.98;;;15.70;99.90;;;;;;4964877;28;20086;-70
2022/10/20 02:27:12;;;;;;;26.50;15.63;;;15.60;99.90;;;;;;4963129;28;20081;-71
2022/10/20 02:29:50;;;;;;;31.92;16.38;;;15.60;99.90;;;;;;4963597;28;20165;-70
2022/10/20 02:32:17;;;;;;;28.30;14.98;;;15.60;99.90;;;;;;4959239;28;20494;-70
2022/10/20 02:34:43;;;;;;;25.88;14.85;;;15.60;99.90;;;;;;4962565;28;20478;-70
2022/10/20 02:37:09;;;;;;;26.55;15.00;;;15.60;99.90;;;;;;4958476;28;20055;-70
2022/10/20 02:39:35;;;;;;;25.05;14.13;;;15.50;99.90;;;;;;4963212;28;20046;-70
2022/10/20 02:42:00;;;;;;;24.17;13.77;;;15.50;99.90;;;;;;4958365;28;20031;-70
2022/10/20 02:44:26;;;;;;;26.77;14.00;;;15.50;99.90;;;;;;4961927;28;20042;-70
2022/10/20 02:46:51;;;;;;;24.83;14.93;;;15.50;99.90;;;;;;4943791;28;20666;-70
2022/10/20 02:49:18;;;;;;;25.00;14.70;;;15.50;99.90;;;;;;4963295;28;20046;-70
2022/10/20 02:51:43;;;;;;;25.15;15.43;;;15.60;99.90;;;;;;4963288;28;20378;-70
2022/10/20 02:54:09;;;;;;;22.17;14.20;;;15.60;99.90;;;;;;4960428;28;20038;-70
2022/10/20 02:56:34;;;;;;;27.40;13.45;;;15.60;99.90;;;;;;4962640;28;20110;-70
2022/10/20 02:59:00;;;;;;;23.23;14.82;;;15.60;99.90;;;;;;4962888;28;20039;-70
2022/10/20 03:01:25;;;;;;;22.35;13.32;;;15.60;99.90;;;;;;4958712;28;20405;-70
2022/10/20 03:03:57;;;;;;;27.45;15.18;;;15.70;99.90;;;;;;4962504;28;20041;-70
2022/10/20 03:06:23;;;;;;;28.25;14.38;;;15.70;99.90;;;;;;4962134;28;20042;-70
2022/10/20 03:08:48;;;;;;;29.67;14.88;;;15.70;99.90;;;;;;4951244;28;20041;-70
2022/10/20 03:11:14;;;;;;;28.95;15.15;;;15.70;99.90;;;;;;4958683;28;20073;-70
2022/10/20 03:13:39;;;;;;;29.38;14.57;;;15.70;99.90;;;;;;4962316;28;20137;-70
2022/10/20 03:16:05;;;;;;;31.45;14.32;;;15.70;99.90;;;;;;4944617;28;20046;-70
2022/10/20 03:18:31;;;;;;;27.50;13.77;;;15.70;99.90;;;;;;4965949;28;20102;-70
2022/10/20 03:20:56;;;;;;;27.50;14.10;;;15.70;99.90;;;;;;4948937;28;20097;-71
2022/10/20 03:23:22;;;;;;;26.80;14.05;;;15.70;99.90;;;;;;4961210;28;20034;-71
2022/10/20 03:25:47;;;;;;;22.42;14.20;;;15.70;99.90;;;;;;4962744;28;20041;-71
2022/10/20 03:28:13;;;;;;;29.05;15.88;;;15.70;99.90;;;;;;4959648;28;20039;-71
2022/10/20 03:30:39;;;;;;;27.25;15.32;;;15.70;99.90;;;;;;4959174;28;20058;-71
2022/10/20 03:33:05;;;;;;;28.02;15.45;;;15.70;99.90;;;;;;4962427;28;20049;-70
2022/10/20 03:35:31;;;;;;;26.75;15.45;;;15.70;99.90;;;;;;4961543;28;20030;-71
2022/10/20 03:37:56;;;;;;;24.50;14.13;;;15.70;99.90;;;;;;4961377;28;20555;-71
2022/10/20 03:40:22;;;;;;;27.60;14.30;;;15.70;99.90;;;;;;4961567;28;20942;-71
2022/10/20 03:42:48;;;;;;;25.95;14.40;;;15.70;99.90;;;;;;4959106;28;20104;-71
2022/10/20 03:45:13;;;;;;;26.20;14.50;;;15.70;99.90;;;;;;4957939;28;20034;-71
2022/10/20 03:47:39;;;;;;;28.65;14.57;;;15.70;99.90;;;;;;4961743;28;20070;-70
2022/10/20 03:50:05;;;;;;;29.13;15.65;;;15.70;99.90;;;;;;4962972;28;20046;-70
2022/10/20 03:52:31;;;;;;;30.17;14.60;;;15.70;99.90;;;;;;4970377;28;20117;-70
2022/10/20 03:54:56;;;;;;;25.00;14.63;;;15.80;99.90;;;;;;4961609;28;20138;-71
2022/10/20 03:57:22;;;;;;;28.73;14.02;;;15.80;99.90;;;;;;4958470;28;20030;-71
2022/10/20 03:59:47;;;;;;;26.85;15.07;;;15.80;99.90;;;;;;4959911;28;20038;-71
2022/10/20 04:02:35;;;;;;;28.35;15.10;;;15.90;99.90;;;;;;4961109;28;20058;-71
2022/10/20 04:05:01;;;;;;;27.83;14.52;;;15.90;99.90;;;;;;4961650;28;20084;-70
2022/10/20 04:07:27;;;;;;;27.63;14.50;;;15.90;99.90;;;;;;4958991;28;20050;-71
2022/10/20 04:09:53;;;;;;;23.73;15.32;;;15.90;99.90;;;;;;4970076;28;20026;-70
2022/10/20 04:12:18;;;;;;;26.40;15.75;;;16.00;99.90;;;;;;4961385;28;20749;-70
2022/10/20 04:14:44;;;;;;;25.33;15.95;;;16.00;99.90;;;;;;4962041;28;20039;-71
2022/10/20 04:17:10;;;;;;;29.65;15.20;;;16.00;99.90;;;;;;4959252;28;20061;-71
2022/10/20 04:19:35;;;;;;;23.08;14.80;;;16.10;99.90;;;;;;4962289;28;20035;-71
2022/10/20 04:22:01;;;;;;;26.70;14.70;;;16.10;99.90;;;;;;4959164;28;20199;-71
2022/10/20 04:24:26;;;;;;;28.80;16.55;;;16.10;99.90;;;;;;4962637;28;20113;-70
2022/10/20 04:26:52;;;;;;;26.83;16.20;;;16.10;99.90;;;;;;4962261;28;20039;-70
2022/10/20 04:29:17;;;;;;;21.70;13.20;;;16.20;99.90;;;;;;4956176;28;20042;-71
2022/10/20 04:31:43;;;;;;;23.17;14.73;;;16.30;99.90;;;;;;4960981;28;20437;-70
2022/10/20 04:34:09;;;;;;;26.13;16.30;;;16.40;99.90;;;;;;4952129;28;20047;-69
2022/10/20 04:36:35;;;;;;;21.92;12.90;;;16.40;99.90;;;;;;4961306;28;20468;-70
2022/10/20 04:39:00;;;;;;;20.45;13.75;;;16.40;99.90;;;;;;4961310;28;20035;-69
2022/10/20 04:41:26;;;;;;;19.05;12.70;;;16.50;99.90;;;;;;4961932;28;20070;-70
2022/10/20 04:43:52;;;;;;;24.20;13.65;;;16.50;99.90;;;;;;4955401;28;20039;-69
2022/10/20 04:46:18;;;;;;;28.45;15.00;;;16.60;99.90;;;;;;4937007;28;20050;-69
2022/10/20 04:48:44;;;;;;;25.50;15.35;;;16.50;99.90;;;;;;4955286;28;20031;-69
2022/10/20 04:51:12;;;;;;;31.55;17.27;;;16.60;99.90;;;;;;4959894;28;20042;-69
2022/10/20 04:53:38;;;;;;;30.27;17.52;;;16.60;99.90;;;;;;4961813;28;20058;-69
2022/10/20 04:56:05;;;;;;;26.05;17.00;;;16.60;99.90;;;;;;4933939;28;20363;-69
2022/10/20 04:58:32;;;;;;;23.20;15.27;;;16.60;99.90;;;;;;4975152;28;20105;-69
2022/10/20 05:01:02;;;;;;;26.70;14.90;;;16.60;99.90;;;;;;4971753;28;20056;-69
2022/10/20 05:03:28;;;;;;;22.63;14.35;;;16.70;99.90;;;;;;4975083;28;20057;-69
2022/10/20 05:05:54;;;;;;;23.92;14.20;;;16.70;99.90;;;;;;4973928;28;20105;-69
2022/10/20 05:08:19;;;;;;;27.55;15.90;;;16.70;99.90;;;;;;4971179;28;20421;-69
2022/10/20 05:10:45;;;;;;;22.48;14.50;;;16.70;99.90;;;;;;4976834;28;20422;-69
2022/10/20 05:13:11;;;;;;;27.13;15.13;;;16.70;99.90;;;;;;4972046;28;20038;-70
2022/10/20 05:15:36;;;;;;;24.77;15.52;;;16.70;99.90;;;;;;4980538;28;20069;-69
2022/10/20 05:18:02;;;;;;;25.05;15.05;;;16.70;99.90;;;;;;4971931;28;20038;-69
2022/10/20 05:20:27;;;;;;;27.90;14.65;;;16.70;99.90;;;;;;4972284;28;20041;-69
2022/10/20 05:22:54;;;;;;;29.30;16.23;;;16.70;99.90;;;;;;4974044;28;20426;-70
2022/10/20 05:25:19;;;;;;;28.98;15.75;;;16.70;99.90;;;;;;4971520;28;20067;-69
2022/10/20 05:27:45;;;;;;;21.65;15.20;;;16.70;99.90;;;;;;4969006;28;20043;-69
2022/10/20 05:30:10;;;;;;;28.33;16.60;;;16.60;99.90;;;;;;4971694;28;20039;-69
2022/10/20 05:32:36;;;;;;;27.85;17.35;;;16.70;99.90;;;;;;4973289;28;20717;-69
2022/10/20 05:35:02;;;;;;;29.90;17.67;;;16.70;99.90;;;;;;4971002;28;20042;-70
2022/10/20 05:37:28;;;;;;;24.08;14.95;;;16.70;99.90;;;;;;4961546;28;20054;-70
2022/10/20 05:39:53;;;;;;;26.33;16.83;;;16.70;99.90;;;;;;4959348;28;20035;-71
2022/10/20 05:42:19;;;;;;;29.17;17.05;;;16.70;99.90;;;;;;4971086;28;20063;-71
2022/10/20 05:44:44;;;;;;;31.33;17.73;;;16.70;99.90;;;;;;4968465;28;20062;-70
2022/10/20 05:47:10;;;;;;;28.92;16.25;;;16.70;99.90;;;;;;4962975;28;20066;-71
2022/10/20 05:49:35;;;;;;;28.02;18.40;;;16.70;99.90;;;;;;4971028;28;20065;-71
2022/10/20 05:52:04;;;;;;;28.38;15.85;;;16.70;99.90;;;;;;4971275;28;20038;-70
2022/10/20 05:54:29;;;;;;;31.27;17.23;;;16.70;99.90;;;;;;4970541;28;20035;-71
2022/10/20 05:56:55;;;;;;;31.63;16.42;;;16.70;99.90;;;;;;4969649;28;20104;-70
2022/10/20 05:59:21;;;;;;;29.52;16.92;;;16.60;99.90;;;;;;4971273;28;20038;-70
2022/10/20 06:01:46;;;;;;;32.45;15.88;;;16.60;99.90;;;;;;4964369;28;20541;-70
2022/10/20 06:04:16;;;;;;;37.95;16.65;;;16.60;99.90;;;;;;4971047;28;20066;-70
2022/10/20 06:06:43;;;;;;;25.33;14.60;;;16.60;99.90;;;;;;4971490;28;20058;-71
2022/10/20 06:09:10;;;;;;;31.55;17.30;;;16.60;99.90;;;;;;4970493;28;20682;-71
2022/10/20 06:11:36;;;;;;;28.50;15.75;;;16.50;99.90;;;;;;4968443;28;20023;-70
2022/10/20 06:14:02;;;;;;;28.33;16.13;;;16.50;99.90;;;;;;4972938;28;20053;-70
2022/10/20 06:16:28;;;;;;;31.08;16.23;;;16.50;99.90;;;;;;4970516;28;20376;-70
2022/10/20 06:18:56;;;;;;;29.80;15.60;;;16.50;99.90;;;;;;4970310;28;20031;-71
2022/10/20 06:21:24;;;;;;;37.30;16.63;;;16.50;99.90;;;;;;4969507;28;20042;-70
2022/10/20 06:23:50;;;;;;;32.90;15.35;;;16.50;99.90;;;;;;4953631;28;20077;-70
2022/10/20 06:26:19;;;;;;;28.23;14.85;;;16.50;99.90;;;;;;4956472;28;20092;-70
2022/10/20 06:28:46;;;;;;;26.92;14.32;;;16.40;99.90;;;;;;4969663;28;20082;-70
2022/10/20 06:31:20;;;;;;;28.55;13.85;;;16.40;99.90;;;;;;4972904;28;20057;-71
2022/10/20 06:33:47;;;;;;;30.00;14.60;;;16.40;99.90;;;;;;4967797;28;20042;-71
2022/10/20 06:36:13;;;;;;;29.40;13.95;;;16.40;99.90;;;;;;4970656;28;20074;-71
2022/10/20 06:38:39;;;;;;;31.02;14.18;;;16.30;99.90;;;;;;4971830;28;20121;-70
2022/10/20 06:41:07;;;;;;;29.70;14.35;;;16.40;99.90;;;;;;4970542;28;20448;-70
2022/10/20 06:43:33;;;;;;;33.65;13.70;;;16.30;99.90;;;;;;4970348;28;20030;-70
2022/10/20 06:46:11;;;;;;;31.35;11.98;;;16.30;99.90;;;;;;4969285;28;20033;-71
2022/10/20 06:48:37;;;;;;;25.95;11.00;;;16.20;99.90;;;;;;4968709;28;20067;-71
2022/10/20 06:51:06;;;;;;;29.23;10.50;;;16.30;99.90;;;;;;4968930;28;21782;-71
2022/10/20 06:53:35;;;;;;;24.75;9.45;;;16.30;99.90;;;;;;4953389;28;20430;-71
2022/10/20 06:56:05;;;;;;;24.52;10.40;;;16.30;99.90;;;;;;4986865;28;20041;-71
2022/10/20 06:58:33;;;;;;;30.55;10.40;;;16.30;99.90;;;;;;4977901;28;20034;-71
2022/10/20 07:01:06;;;;;;;29.08;9.93;;;16.20;99.90;;;;;;4981049;28;20473;-70
2022/10/20 07:03:34;;;;;;;29.35;10.32;;;16.30;99.90;;;;;;4979447;28;20038;-71
2022/10/20 07:06:00;;;;;;;24.05;8.57;;;16.20;99.90;;;;;;4972498;28;20031;-70
2022/10/20 07:08:27;;;;;;;24.10;9.07;;;16.20;99.90;;;;;;4981931;28;20555;-70
2022/10/20 07:11:08;;;;;;;30.33;9.98;;;16.20;99.90;;;;;;4976992;28;20496;-70
2022/10/20 07:13:35;;;;;;;24.20;9.05;;;16.20;99.90;;;;;;4955045;28;20033;-71
2022/10/20 07:16:02;;;;;;;21.77;8.60;;;16.20;99.90;;;;;;4967665;28;20121;-70
2022/10/20 07:18:28;;;;;;;24.00;9.32;;;16.20;99.90;;;;;;4972012;28;20085;-70
2022/10/20 07:20:58;;;;;;;24.73;8.70;;;16.20;99.90;;;;;;4966729;28;20040;-70
2022/10/20 07:23:28;;;;;;;25.90;9.27;;;16.20;99.90;;;;;;4962797;28;20043;-70
2022/10/20 07:26:03;;;;;;;28.95;9.68;;;16.20;99.90;;;;;;4963088;28;20054;-70
2022/10/20 07:28:29;;;;;;;25.33;9.07;;;16.20;99.90;;;;;;4968106;28;20035;-70
2022/10/20 07:30:55;;;;;;;27.05;10.02;;;16.20;99.90;;;;;;4966849;28;20031;-70
2022/10/20 07:33:21;;;;;;;26.27;9.32;;;16.20;99.90;;;;;;4969709;28;20474;-70
2022/10/20 07:35:48;;;;;;;22.15;9.30;;;16.20;99.90;;;;;;4968146;28;20035;-70
2022/10/20 07:38:14;;;;;;;21.55;9.63;;;16.20;99.90;;;;;;4969324;28;20039;-71
2022/10/20 07:40:40;;;;;;;22.17;9.38;;;16.20;99.90;;;;;;4968977;28;20027;-70
2022/10/20 07:43:06;;;;;;;24.98;9.80;;;16.20;99.90;;;;;;4951770;28;20050;-70
2022/10/20 07:45:31;;;;;;;26.00;9.60;;;16.20;99.90;;;;;;4967866;28;20039;-70
2022/10/20 07:47:58;;;;;;;24.85;8.98;;;16.20;99.90;;;;;;4969218;28;20045;-70
2022/10/20 07:50:24;;;;;;;25.83;9.45;;;16.20;99.90;;;;;;4969028;28;20536;-70
2022/10/20 07:52:53;;;;;;;20.15;8.95;;;16.30;99.90;;;;;;4969237;28;20042;-71
2022/10/20 07:55:19;;;;;;;21.02;8.68;;;16.20;99.90;;;;;;4968791;28;20038;-70
2022/10/20 07:57:44;;;;;;;24.63;9.63;;;16.20;99.90;;;;;;4957756;28;20034;-70
2022/10/20 08:00:10;;;;;;;20.73;8.30;;;16.20;99.90;;;;;;4958092;28;20759;-70
2022/10/20 08:02:36;;;;;;;23.73;8.82;;;16.20;99.90;;;;;;4957363;28;20497;-70
2022/10/20 08:05:02;;;;;;;18.70;7.28;;;16.20;99.90;;;;;;4957712;28;20065;-70
2022/10/20 08:07:27;;;;;;;23.60;8.43;;;16.30;99.90;;;;;;4958048;28;20038;-71
2022/10/20 08:09:53;;;;;;;16.52;7.85;;;16.30;99.90;;;;;;4961802;28;20552;-71
2022/10/20 08:12:19;;;;;;;17.80;6.60;;;16.30;99.90;;;;;;4964374;28;20043;-72
2022/10/20 08:14:45;;;;;;;20.67;7.75;;;16.30;99.90;;;;;;4958980;28;20083;-70
2022/10/20 08:17:10;;;;;;;22.73;8.70;;;16.30;99.90;;;;;;4957681;28;20035;-71
2022/10/20 08:19:36;;;;;;;22.02;7.28;;;16.30;99.90;;;;;;4955988;28;20038;-71
2022/10/20 08:22:01;;;;;;;19.13;7.65;;;16.40;99.90;;;;;;4961822;28;20038;-71
2022/10/20 08:24:27;;;;;;;22.45;8.05;;;16.40;99.90;;;;;;4958459;28;20043;-71
2022/10/20 08:26:52;;;;;;;19.27;7.50;;;16.40;99.90;;;;;;4962849;28;20113;-71
2022/10/20 08:29:18;;;;;;;26.92;8.75;;;16.40;99.90;;;;;;4955945;28;20031;-70
2022/10/20 08:31:44;;;;;;;19.08;8.82;;;16.40;99.90;;;;;;4958912;28;20137;-71
2022/10/20 08:34:09;;;;;;;27.27;8.55;;;16.40;99.90;;;;;;4965497;28;20039;-70
2022/10/20 08:36:38;;;;;;;25.60;8.07;;;16.40;99.90;;;;;;4964037;28;20785;-71
2022/10/20 08:39:04;;;;;;;22.52;8.15;;;16.40;99.90;;;;;;4964971;28;20035;-70
2022/10/20 08:41:37;;;;;;;27.05;8.77;;;16.40;99.90;;;;;;4961361;28;20172;-70
2022/10/20 08:44:06;;;;;;;24.48;8.35;;;16.50;99.90;;;;;;4964567;28;20112;-71
2022/10/20 08:46:38;;;;;;;21.15;8.57;;;16.50;99.90;;;;;;4965602;28;20176;-70
2022/10/20 08:49:10;;;;;;;22.70;7.65;;;16.50;99.90;;;;;;4965805;28;20052;-70
2022/10/20 08:51:37;;;;;;;22.88;8.48;;;16.50;99.90;;;;;;4959863;28;20038;-71
2022/10/20 08:54:04;;;;;;;25.67;8.10;;;16.60;99.90;;;;;;4955770;28;20754;-72
2022/10/20 08:56:33;;;;;;;22.88;8.43;;;16.50;99.90;;;;;;4945577;28;20034;-72
2022/10/20 08:59:00;;;;;;;21.73;7.93;;;16.50;99.90;;;;;;4960692;28;20095;-71
2022/10/20 09:01:32;;;;;;;21.30;8.45;;;16.50;99.90;;;;;;4961823;28;20039;-72
2022/10/20 09:04:17;;;;;;;24.60;7.72;;;16.50;99.90;;;;;;4965687;28;20041;-72
2022/10/20 09:06:45;;;;;;;48.33;16.13;;;16.50;99.90;;;;;;4966218;28;20481;-73
2022/10/20 09:09:18;;;;;;;31.73;11.32;;;16.40;99.90;;;;;;4950145;28;20038;-72
2022/10/20 09:11:45;;;;;;;19.55;6.13;;;16.30;99.90;;;;;;4953271;28;20765;-74
2022/10/20 09:14:11;;;;;;;17.25;8.20;;;16.20;99.90;;;;;;4979569;28;20086;-73
2022/10/20 09:16:40;;;;;;;17.95;6.80;;;16.20;99.90;;;;;;4968572;28;20502;-73
2022/10/20 09:19:14;;;;;;;16.50;7.07;;;16.10;99.90;;;;;;4963620;28;20490;-73
2022/10/20 09:21:40;;;;;;;19.73;6.40;;;16.00;99.90;;;;;;4969634;28;20030;-72
2022/10/20 09:24:06;;;;;;;16.17;5.72;;;16.00;99.90;;;;;;4965257;28;20474;-72
2022/10/20 09:26:37;;;;;;;20.38;5.57;;;16.00;99.90;;;;;;4974636;28;20076;-72
2022/10/20 09:29:08;;;;;;;14.20;5.22;;;16.00;99.90;;;;;;4970411;28;20042;-72
2022/10/20 09:31:55;;;;;;;13.75;4.47;;;16.00;99.90;;;;;;4965370;28;20038;-73
2022/10/20 09:34:22;;;;;;;13.88;4.20;;;16.00;99.90;;;;;;4950917;28;20556;-73
2022/10/20 09:36:50;;;;;;;13.45;4.13;;;16.00;99.90;;;;;;4962272;28;20527;-73
2022/10/20 09:39:26;;;;;;;15.88;3.92;;;16.20;99.90;;;;;;4961150;28;20033;-73
2022/10/20 09:42:02;;;;;;;17.75;4.68;;;16.30;99.90;;;;;;4960643;28;20069;-73
2022/10/20 09:44:38;;;;;;;15.70;4.20;;;16.40;99.90;;;;;;4961865;28;20035;-73
2022/10/20 09:47:03;;;;;;;20.25;4.38;;;16.50;99.90;;;;;;4963588;28;20059;-73
2022/10/20 09:49:29;;;;;;;16.45;4.78;;;16.60;99.90;;;;;;4957794;28;20134;-73
2022/10/20 09:51:55;;;;;;;20.05;5.88;;;16.70;99.90;;;;;;4962413;28;20033;-73
2022/10/20 09:54:24;;;;;;;16.85;4.40;;;16.80;99.90;;;;;;4953495;28;20098;-73
2022/10/20 09:56:51;;;;;;;18.85;6.78;;;17.00;99.90;;;;;;4953593;28;20112;-73
2022/10/20 09:59:25;;;;;;;21.10;6.18;;;17.00;99.90;;;;;;4971095;28;20042;-73
2022/10/20 10:01:57;;;;;;;18.67;5.50;;;17.10;99.90;;;;;;4970468;28;20129;-73
2022/10/20 10:04:50;;;;;;;15.32;4.20;;;17.30;99.90;;;;;;4976816;28;20062;-72
2022/10/20 10:07:24;;;;;;;17.45;4.13;;;17.40;99.90;;;;;;4980915;28;20054;-72
2022/10/20 10:09:56;;;;;;;14.80;4.32;;;17.40;99.90;;;;;;4981996;28;20089;-72
2022/10/20 10:12:24;;;;;;;14.65;4.20;;;17.30;99.90;;;;;;4980104;28;20038;-72
2022/10/20 10:15:06;;;;;;;18.35;4.28;;;17.20;99.90;;;;;;4949320;28;20035;-73
2022/10/20 10:17:41;;;;;;;8.68;2.75;;;17.20;99.90;;;;;;4958845;28;20043;-72
2022/10/20 10:20:27;;;;;;;12.13;3.47;;;17.00;99.90;;;;;;4968579;28;20038;-72
2022/10/20 10:23:15;;;;;;;15.77;3.50;;;17.00;99.90;;;;;;4965590;28;20508;-72
2022/10/20 10:25:41;;;;;;;13.20;3.35;;;16.90;99.90;;;;;;4970338;28;20034;-72
2022/10/20 10:28:33;;;;;;;13.70;3.28;;;16.90;99.90;;;;;;4969260;28;20073;-75
2022/10/20 10:31:22;;;;;;;12.68;3.30;;;16.90;99.90;;;;;;4967832;28;20039;-73
2022/10/20 10:34:27;;;;;;;13.70;3.45;;;16.90;99.90;;;;;;4962130;28;20562;-73
2022/10/20 10:36:53;;;;;;;12.80;3.20;;;16.90;99.90;;;;;;4969476;28;20085;-72
2022/10/20 10:39:18;;;;;;;6.43;2.28;;;16.90;99.90;;;;;;4971478;28;20385;-73
2022/10/20 10:42:06;;;;;;;12.80;2.65;;;16.90;99.90;;;;;;4970559;28;20406;-73
2022/10/20 10:44:47;;;;;;;15.30;3.00;;;16.80;99.90;;;;;;4970244;28;20039;-72
2022/10/20 10:47:13;;;;;;;14.32;2.55;;;16.80;99.90;;;;;;4951369;29;20041;-73
2022/10/20 10:49:57;;;;;;;12.27;2.63;;;16.70;99.90;;;;;;4967906;28;20046;-73
2022/10/20 10:52:32;;;;;;;12.60;3.10;;;16.70;99.90;;;;;;4970513;28;20596;-73
2022/10/20 10:54:58;;;;;;;14.52;2.97;;;16.70;99.90;;;;;;4987602;28;20038;-73
2022/10/20 10:57:31;;;;;;;16.50;3.13;;;16.70;99.90;;;;;;4981882;28;20500;-73
2022/10/20 11:00:00;;;;;;;15.77;2.92;;;16.80;99.90;;;;;;4953137;28;20046;-74
2022/10/20 11:03:03;;;;;;;14.10;2.53;;;16.80;99.90;;;;;;4966014;28;20066;-74
2022/10/20 11:05:47;;;;;;;22.40;2.67;;;16.80;99.90;;;;;;4958656;28;20098;-73
2022/10/20 11:08:37;;;;;;;13.52;2.42;;;16.90;99.90;;;;;;4957929;28;20031;-72
2022/10/20 11:11:22;;;;;;;14.90;2.63;;;16.90;99.90;;;;;;4955707;28;20039;-72
2022/10/20 11:13:52;;;;;;;14.88;2.75;;;17.00;99.90;;;;;;4952243;28;20070;-72
2022/10/20 11:16:44;;;;;;;12.88;2.88;;;17.10;99.90;;;;;;4954731;28;20382;-73
2022/10/20 11:19:28;;;;;;;13.13;2.90;;;17.20;99.90;;;;;;4952701;28;20576;-73
2022/10/20 11:22:09;;;;;;;10.00;2.72;;;17.30;99.90;;;;;;4962301;28;20026;-72
2022/10/20 11:24:52;;;;;;;16.25;2.50;;;17.40;99.90;;;;;;4958691;28;20031;-71
2022/10/20 11:27:26;;;;;;;11.77;2.45;;;17.50;99.90;;;;;;4952706;28;20039;-72
2022/10/20 11:30:03;;;;;;;15.27;2.85;;;17.50;99.90;;;;;;4959555;28;20050;-71
2022/10/20 11:32:38;;;;;;;11.90;2.38;;;17.70;99.90;;;;;;4953960;28;20045;-71
2022/10/20 11:35:21;;;;;;;11.82;2.40;;;17.90;99.90;;;;;;4955787;28;20046;-71
2022/10/20 11:38:20;;;;;;;11.45;2.25;;;18.20;99.90;;;;;;4956825;28;20125;-71
2022/10/20 11:41:02;;;;;;;8.93;2.20;;;18.30;99.90;;;;;;4954080;28;20043;-72
2022/10/20 11:43:42;;;;;;;11.27;2.05;;;18.50;99.90;;;;;;4952487;28;20038;-72
2022/10/20 11:46:12;;;;;;;9.82;2.10;;;18.50;99.90;;;;;;4961052;28;20135;-71
2022/10/20 11:48:42;;;;;;;13.38;2.20;;;18.60;99.90;;;;;;4956715;28;20051;-78
2022/10/20 11:51:28;;;;;;;10.68;2.20;;;18.70;99.90;;;;;;4950493;28;20072;-79
2022/10/20 11:54:31;;;;;;;9.35;1.90;;;18.80;99.90;;;;;;4917835;28;20098;-73
2022/10/20 11:57:11;;;;;;;9.60;2.13;;;18.90;99.90;;;;;;4953857;28;20677;-78
2022/10/20 11:59:46;;;;;;;10.75;1.92;;;19.20;99.90;;;;;;4954810;28;20034;-75
2022/10/20 12:02:12;;;;;;;15.10;2.50;;;19.50;99.90;;;;;;4951279;28;20046;-79
2022/10/20 12:04:43;;;;;;;13.48;2.55;;;19.40;99.90;;;;;;4959005;28;20031;-75
2022/10/20 12:07:34;;;;;;;8.65;2.20;;;19.20;99.90;;;;;;4949848;28;20408;-72
2022/10/20 12:10:37;;;;;;;14.52;2.03;;;19.00;99.90;;;;;;4956801;28;20109;-73
2022/10/20 12:13:27;;;;;;;9.63;1.50;;;18.90;99.90;;;;;;4949922;28;20035;-74
2022/10/20 12:15:52;;;;;;;8.50;1.70;;;18.90;99.90;;;;;;4956206;28;20031;-75
2022/10/20 12:18:35;;;;;;;6.15;1.40;;;19.00;99.90;;;;;;4957572;28;20583;-72
2022/10/20 12:21:05;;;;;;;8.88;1.80;;;18.90;99.90;;;;;;4957042;28;20043;-72
2022/10/20 12:23:43;;;;;;;10.30;1.40;;;18.90;99.90;;;;;;4957351;28;20043;-76
2022/10/20 12:26:31;;;;;;;11.43;1.45;;;18.90;99.90;;;;;;4959177;28;20153;-72
2022/10/20 12:29:20;;;;;;;8.68;1.50;;;18.90;99.90;;;;;;4952138;28;20039;-73
2022/10/20 12:32:20;;;;;;;11.48;1.70;;;18.80;99.90;;;;;;4949330;28;20039;-78
2022/10/20 12:34:48;;;;;;;10.30;1.70;;;18.60;99.90;;;;;;4963652;28;20039;-72
2022/10/20 12:37:21;;;;;;;11.45;1.70;;;18.60;99.90;;;;;;4959058;28;20093;-73
2022/10/20 12:39:46;;;;;;;11.52;1.73;;;18.70;99.90;;;;;;4953934;28;20117;-72
2022/10/20 12:42:49;;;;;;;8.48;1.65;;;18.70;99.90;;;;;;4975170;28;20113;-72
2022/10/20 12:45:18;;;;;;;10.00;1.38;;;18.70;99.90;;;;;;4959419;28;20039;-72
2022/10/20 12:48:18;;;;;;;8.75;1.30;;;18.70;99.90;;;;;;4968503;28;20065;-72
2022/10/20 12:50:45;;;;;;;9.55;1.60;;;18.80;99.90;;;;;;4966790;28;20827;-74